createdAt,value
2023-01-10T00:02:18.502Z,99202.53
2023-01-10T00:04:44.885Z,99199.56
2023-01-10T00:07:11.230Z,99198.88
2023-01-10T00:09:37.704Z,99216.72
2023-01-10T00:12:22.987Z,99221.44
2023-01-10T00:14:49.278Z,99228.66
2023-01-10T00:17:15.571Z,99225.63
2023-01-10T00:19:42.101Z,99234.22
2023-01-10T00:22:09.161Z,99239.34
2023-01-10T00:24:35.466Z,99242.53
2023-01-10T00:27:02.923Z,99252.59
2023-01-10T00:29:35.517Z,99250.47
2023-01-10T00:32:01.991Z,99259.69
2023-01-10T00:34:28.359Z,99264.44
2023-01-10T00:36:54.685Z,99259.78
2023-01-10T00:39:21.126Z,99277.00
2023-01-10T00:42:06.191Z,99285.19
2023-01-10T00:44:32.599Z,99290.94
2023-01-10T00:46:58.890Z,99302.50
2023-01-10T00:49:25.203Z,99313.00
2023-01-10T00:51:51.595Z,99312.50
2023-01-10T00:54:17.935Z,99318.06
2023-01-10T00:56:44.261Z,99323.56
2023-01-10T00:59:10.621Z,99334.38
2023-01-10T01:01:37.127Z,99342.53
2023-01-10T01:04:03.552Z,99345.91
2023-01-10T01:06:29.923Z,99352.63
2023-01-10T01:08:56.265Z,99359.56
2023-01-10T01:11:22.624Z,99362.00
2023-01-10T01:13:48.972Z,99370.81
2023-01-10T01:16:15.700Z,99380.47
2023-01-10T01:18:42.056Z,99388.88
2023-01-10T01:21:08.526Z,99380.47
2023-01-10T01:23:35.782Z,99394.34
2023-01-10T01:26:02.650Z,99398.94
2023-01-10T01:28:28.989Z,99397.25
2023-01-10T01:30:55.383Z,99404.97
2023-01-10T01:33:21.827Z,99410.88
2023-01-10T01:35:49.395Z,99421.38
2023-01-10T01:38:16.774Z,99430.41
2023-01-10T01:40:43.365Z,99442.16
2023-01-10T01:43:21.247Z,99453.69
2023-01-10T01:45:47.640Z,99452.00
2023-01-10T01:48:39.691Z,99467.44
2023-01-10T01:51:17.766Z,99468.84
2023-01-10T01:53:48.688Z,99487.16
2023-01-10T01:56:20.731Z,99487.22
2023-01-10T01:59:02.424Z,99498.09
2023-01-10T02:01:31.093Z,99504.19
2023-01-10T02:04:09.650Z,99514.22
2023-01-10T02:06:36.204Z,99509.38
2023-01-10T02:09:15.931Z,99511.59
2023-01-10T02:11:42.304Z,99502.44
2023-01-10T02:14:11.825Z,99509.72
2023-01-10T02:16:38.177Z,99511.59
2023-01-10T02:19:12.308Z,99508.97
2023-01-10T02:22:03.621Z,99508.97
2023-01-10T02:24:36.101Z,99509.16
2023-01-10T02:27:20.204Z,99509.81
2023-01-10T02:30:09.009Z,99511.13
2023-01-10T02:32:57.027Z,99501.47
2023-01-10T02:35:37.254Z,99506.44
2023-01-10T02:38:25.430Z,99504.81
2023-01-10T02:41:15.424Z,99514.22
2023-01-10T02:43:49.191Z,99526.03
2023-01-10T02:46:24.858Z,99533.03
2023-01-10T02:48:55.338Z,99536.31
2023-01-10T02:51:24.415Z,99542.53
2023-01-10T02:54:01.786Z,99536.81
2023-01-10T02:57:00.068Z,99543.94
2023-01-10T02:59:45.257Z,99545.81
2023-01-10T03:02:45.218Z,99550.59
2023-01-10T03:05:36.047Z,99541.66
2023-01-10T03:08:23.907Z,99547.50
2023-01-10T03:11:07.865Z,99554.44
2023-01-10T03:13:46.158Z,99553.97
2023-01-10T03:16:24.723Z,99550.19
2023-01-10T03:18:56.455Z,99564.47
2023-01-10T03:21:26.219Z,99564.81
2023-01-10T03:23:57.079Z,99577.13
2023-01-10T03:26:47.243Z,99581.91
2023-01-10T03:29:19.454Z,99584.13
2023-01-10T03:31:51.853Z,99588.63
2023-01-10T03:34:18.321Z,99591.53
2023-01-10T03:37:17.906Z,99593.41
2023-01-10T03:40:16.282Z,99600.06
2023-01-10T03:43:12.095Z,99606.91
2023-01-10T03:45:44.811Z,99602.88
2023-01-10T03:48:12.973Z,99617.22
2023-01-10T03:50:41.312Z,99622.19
2023-01-10T03:53:07.848Z,99629.69
2023-01-10T03:55:35.731Z,99625.09
2023-01-10T03:58:02.109Z,99641.97
2023-01-10T04:00:28.483Z,99637.75
2023-01-10T04:02:55.646Z,99649.19
2023-01-10T04:05:22.009Z,99653.31
2023-01-10T04:07:49.074Z,99651.91
2023-01-10T04:10:16.391Z,99666.16
2023-01-10T04:12:43.022Z,99662.69
2023-01-10T04:15:10.055Z,99671.69
2023-01-10T04:17:36.391Z,99665.69
2023-01-10T04:20:03.062Z,99671.03
2023-01-10T04:22:29.369Z,99679.75
2023-01-10T04:24:55.687Z,99682.19
2023-01-10T04:27:22.228Z,99671.88
2023-01-10T04:29:48.651Z,99681.84
2023-01-10T04:32:15.049Z,99696.25
2023-01-10T04:34:41.424Z,99694.03
2023-01-10T04:37:07.851Z,99707.28
2023-01-10T04:39:34.166Z,99708.31
2023-01-10T04:42:00.533Z,99710.84
2023-01-10T04:44:26.902Z,99725.91
2023-01-10T04:46:53.222Z,99722.63
2023-01-10T04:49:19.604Z,99728.53
2023-01-10T04:51:45.930Z,99725.16
2023-01-10T04:54:12.264Z,99731.72
2023-01-10T04:56:38.777Z,99734.06
2023-01-10T04:59:06.446Z,99746.91
2023-01-10T05:01:33.803Z,99743.81
2023-01-10T05:04:00.185Z,99739.59
2023-01-10T05:06:26.523Z,99748.19
2023-01-10T05:08:52.909Z,99745.56
2023-01-10T05:11:19.232Z,99745.94
2023-01-10T05:13:47.946Z,99743.16
2023-01-10T05:16:14.507Z,99749.34
2023-01-10T05:18:40.849Z,99750.63
2023-01-10T05:21:10.333Z,99762.59
2023-01-10T05:23:37.459Z,99766.41
2023-01-10T05:26:16.189Z,99761.84
2023-01-10T05:28:42.909Z,99763.25
2023-01-10T05:31:12.421Z,99757.94
2023-01-10T05:33:39.164Z,99758.88
2023-01-10T05:36:06.749Z,99760.34
2023-01-10T05:38:33.354Z,99764.78
2023-01-10T05:41:00.633Z,99777.72
2023-01-10T05:43:28.099Z,99782.03
2023-01-10T05:45:54.566Z,99776.66
2023-01-10T05:48:20.938Z,99786.22
2023-01-10T05:50:51.943Z,99783.16
2023-01-10T05:53:19.151Z,99784.94
2023-01-10T05:55:56.415Z,99805.94
2023-01-10T05:58:23.422Z,99804.25
2023-01-10T06:00:49.793Z,99807.59
2023-01-10T06:03:16.485Z,99821.09
2023-01-10T06:05:42.889Z,99817.22
2023-01-10T06:08:09.546Z,99816.00
2023-01-10T06:10:35.969Z,99821.19
2023-01-10T06:13:02.282Z,99808.75
2023-01-10T06:15:28.577Z,99814.75
2023-01-10T06:17:54.925Z,99822.91
2023-01-10T06:20:21.240Z,99817.31
2023-01-10T06:22:47.552Z,99823.00
2023-01-10T06:25:14.417Z,99829.44
2023-01-10T06:27:42.146Z,99841.63
2023-01-10T06:30:10.583Z,99855.59
2023-01-10T06:32:37.149Z,99859.66
2023-01-10T06:35:04.829Z,99864.22
2023-01-10T06:37:31.235Z,99854.56
2023-01-10T06:39:57.620Z,99857.28
2023-01-10T06:42:24.072Z,99852.47
2023-01-10T06:44:50.416Z,99839.66
2023-01-10T06:47:16.753Z,99843.22
2023-01-10T06:49:43.032Z,99844.25
2023-01-10T06:52:09.370Z,99863.38
2023-01-10T06:54:35.671Z,99878.59
2023-01-10T06:57:02.055Z,99880.44
2023-01-10T06:59:28.360Z,99885.88
2023-01-10T07:01:54.773Z,99890.38
2023-01-10T07:04:21.115Z,99891.72
2023-01-10T07:06:47.498Z,99899.06
2023-01-10T07:09:13.848Z,99907.94
2023-01-10T07:11:40.199Z,99909.50
2023-01-10T07:14:06.597Z,99894.81
2023-01-10T07:16:32.922Z,99891.78
2023-01-10T07:18:59.612Z,99897.31
2023-01-10T07:21:25.911Z,99895.16
2023-01-10T07:23:52.330Z,99893.47
2023-01-10T07:26:19.726Z,99903.94
2023-01-10T07:28:51.949Z,99910.16
2023-01-10T07:31:19.964Z,99915.22
2023-01-10T07:33:46.441Z,99919.63
2023-01-10T07:36:12.750Z,99926.09
2023-01-10T07:38:39.431Z,99933.09
2023-01-10T07:41:06.222Z,99928.78
2023-01-10T07:43:33.169Z,99937.13
2023-01-10T07:46:00.689Z,99943.41
2023-01-10T07:48:27.173Z,99934.78
2023-01-10T07:50:57.628Z,99933.09
2023-01-10T07:53:24.681Z,99941.13
2023-01-10T07:55:51.173Z,99945.50
2023-01-10T07:58:17.516Z,99953.16
2023-01-10T08:00:43.942Z,99944.06
2023-01-10T08:03:11.125Z,99964.22
2023-01-10T08:05:37.523Z,99959.53
2023-01-10T08:08:09.326Z,99971.06
2023-01-10T08:10:37.136Z,99963.84
2023-01-10T08:13:17.190Z,99969.03
2023-01-10T08:15:45.447Z,99953.56
2023-01-10T08:18:11.799Z,99959.78
2023-01-10T08:20:38.652Z,99971.81
2023-01-10T08:23:04.960Z,99974.53
2023-01-10T08:25:31.275Z,99980.09
2023-01-10T08:27:57.608Z,99977.75
2023-01-10T08:30:23.940Z,99983.66
2023-01-10T08:32:52.124Z,99974.88
2023-01-10T08:35:18.514Z,99982.59
2023-01-10T08:37:44.801Z,99993.34
2023-01-10T08:40:11.496Z,99996.59
2023-01-10T08:42:38.219Z,99985.94
2023-01-10T08:45:05.133Z,99982.97
2023-01-10T08:47:31.511Z,99999.47
2023-01-10T08:49:57.797Z,99998.34
2023-01-10T08:52:24.160Z,100002.50
2023-01-10T08:54:50.538Z,100015.06
2023-01-10T08:57:16.826Z,100014.91
2023-01-10T08:59:43.232Z,100016.25
2023-01-10T09:02:13.437Z,100028.28
2023-01-10T09:04:39.902Z,100033.03
2023-01-10T09:07:06.270Z,100018.81
2023-01-10T09:09:32.557Z,100026.34
2023-01-10T09:11:58.877Z,100034.13
2023-01-10T09:14:25.217Z,100033.97
2023-01-10T09:16:52.314Z,100034.56
2023-01-10T09:19:18.794Z,100032.88
2023-01-10T09:21:45.103Z,100034.63
2023-01-10T09:24:11.491Z,100035.06
2023-01-10T09:26:37.854Z,100052.53
2023-01-10T09:29:04.138Z,100061.66
2023-01-10T09:31:30.473Z,100055.63
2023-01-10T09:33:56.827Z,100061.16
2023-01-10T09:36:23.106Z,100052.44
2023-01-10T09:38:49.424Z,100042.03
2023-01-10T09:41:51.274Z,100055.50
2023-01-10T09:44:44.838Z,100063.41
2023-01-10T09:47:33.415Z,100067.38
2023-01-10T09:50:18.502Z,100071.78
2023-01-10T09:52:51.879Z,100073.97
2023-01-10T09:55:30.005Z,100068.25
2023-01-10T09:58:01.606Z,100067.97
2023-01-10T10:00:41.919Z,100070.88
2023-01-10T10:03:41.450Z,100085.44
2023-01-10T10:06:12.826Z,100080.16
2023-01-10T10:08:41.533Z,100071.50
2023-01-10T10:11:37.598Z,100075.84
2023-01-10T10:14:25.139Z,100083.56
2023-01-10T10:17:29.167Z,100077.00
2023-01-10T10:20:23.652Z,100090.31
2023-01-10T10:23:08.897Z,100086.31
2023-01-10T10:26:09.055Z,100089.81
2023-01-10T10:29:03.648Z,100070.38
2023-01-10T10:31:32.848Z,100077.44
2023-01-10T10:34:13.840Z,100074.31
2023-01-10T10:36:50.616Z,100082.91
2023-01-10T10:39:22.137Z,100086.94
2023-01-10T10:41:53.010Z,100087.31
2023-01-10T10:44:45.035Z,100068.84
2023-01-10T10:47:16.909Z,100068.75
2023-01-10T10:49:59.562Z,100065.94
2023-01-10T10:52:31.376Z,100074.47
2023-01-10T10:54:58.707Z,100064.44
2023-01-10T10:57:28.499Z,100054.06
2023-01-10T10:59:56.475Z,100054.78
2023-01-10T11:02:30.391Z,100051.66
2023-01-10T11:05:00.658Z,100050.34
2023-01-10T11:07:33.781Z,100049.81
2023-01-10T11:10:02.178Z,100059.28
2023-01-10T11:12:34.657Z,100058.16
2023-01-10T11:15:02.468Z,100055.50
2023-01-10T11:17:31.540Z,100070.00
2023-01-10T11:20:17.291Z,100080.13
2023-01-10T11:22:53.129Z,100086.91
2023-01-10T11:25:21.705Z,100078.44
2023-01-10T11:27:48.297Z,100072.41
2023-01-10T11:30:24.584Z,100065.03
2023-01-10T11:33:07.521Z,100054.56
2023-01-10T11:35:36.996Z,100049.81
2023-01-10T11:38:07.270Z,100053.09
2023-01-10T11:40:37.629Z,100044.50
2023-01-10T11:43:25.659Z,100032.00
2023-01-10T11:45:56.159Z,100041.09
2023-01-10T11:48:48.233Z,100031.13
2023-01-10T11:51:19.411Z,100036.19
2023-01-10T11:53:47.223Z,100024.47
2023-01-10T11:56:23.815Z,100019.81
2023-01-10T11:58:50.360Z,100012.81
2023-01-10T12:01:29.937Z,100021.09
2023-01-10T12:03:56.881Z,100016.47
2023-01-10T12:06:23.880Z,100018.66
2023-01-10T12:08:51.146Z,100020.66
2023-01-10T12:11:17.411Z,100026.13
2023-01-10T12:13:51.319Z,100027.81
2023-01-10T12:16:31.722Z,100023.00
2023-01-10T12:19:00.923Z,100018.31
2023-01-10T12:21:34.663Z,100020.44
2023-01-10T12:24:07.253Z,100013.72
2023-01-10T12:26:34.744Z,100003.50
2023-01-10T12:29:11.470Z,100020.50
2023-01-10T12:31:40.332Z,100002.03
2023-01-10T12:34:12.807Z,100005.06
2023-01-10T12:36:51.776Z,99995.47
2023-01-10T12:39:23.392Z,100003.28
2023-01-10T12:42:32.648Z,100006.50
2023-01-10T12:45:22.293Z,100009.03
2023-01-10T12:48:02.519Z,100013.38
2023-01-10T12:50:35.448Z,100013.56
2023-01-10T12:53:23.320Z,100008.28
2023-01-10T12:55:53.373Z,100007.84
2023-01-10T12:58:34.219Z,100015.78
2023-01-10T13:01:02.154Z,100000.59
2023-01-10T13:03:33.419Z,100011.50
2023-01-10T13:06:00.975Z,100009.13
2023-01-10T13:08:31.882Z,100007.53
2023-01-10T13:11:00.044Z,100017.00
2023-01-10T13:13:37.811Z,100016.22
2023-01-10T13:16:42.403Z,100027.53
2023-01-10T13:19:11.867Z,100027.81
2023-01-10T13:21:41.004Z,100025.38
2023-01-10T13:24:22.228Z,100029.78
2023-01-10T13:26:56.303Z,100031.78
2023-01-10T13:29:27.610Z,100016.16
2023-01-10T13:32:00.401Z,100023.03
2023-01-10T13:34:33.385Z,100022.56
2023-01-10T13:37:04.340Z,100008.53
2023-01-10T13:39:36.392Z,100005.72
2023-01-10T13:42:21.575Z,100011.09
2023-01-10T13:45:11.636Z,99996.69
2023-01-10T13:47:40.772Z,99992.75
2023-01-10T13:50:22.284Z,99998.59
2023-01-10T13:52:49.867Z,99995.19
2023-01-10T13:55:39.516Z,99979.72
2023-01-10T13:58:11.852Z,99975.09
2023-01-10T14:00:56.907Z,99982.06
2023-01-10T14:03:51.067Z,99980.56
2023-01-10T14:06:29.566Z,99971.91
2023-01-10T14:08:57.096Z,99963.00
2023-01-10T14:11:29.311Z,99970.59
2023-01-10T14:13:58.944Z,99965.34
2023-01-10T14:16:37.651Z,99961.13
2023-01-10T14:19:19.250Z,99962.25
2023-01-10T14:21:45.809Z,99956.03
2023-01-10T14:24:25.366Z,99963.19
2023-01-10T14:26:57.188Z,99963.00
2023-01-10T14:29:28.217Z,99967.63
2023-01-10T14:31:55.922Z,99958.31
2023-01-10T14:34:27.089Z,99958.78
2023-01-10T14:37:00.970Z,99967.41
2023-01-10T14:39:29.009Z,99959.16
2023-01-10T14:42:02.539Z,99953.69
2023-01-10T14:44:34.969Z,99957.75
2023-01-10T14:47:04.253Z,99941.00
2023-01-10T14:49:35.324Z,99946.09
2023-01-10T14:52:21.837Z,99947.81
2023-01-10T14:55:10.369Z,99944.69
2023-01-10T14:57:36.714Z,99949.66
2023-01-10T15:00:09.199Z,99941.22
2023-01-10T15:02:37.958Z,99936.06
2023-01-10T15:05:25.972Z,99933.31
2023-01-10T15:07:53.716Z,99933.03
2023-01-10T15:10:31.441Z,99936.53
2023-01-10T15:13:01.684Z,99937.34
2023-01-10T15:15:33.895Z,99930.03
2023-01-10T15:18:03.351Z,99923.66
2023-01-10T15:20:30.058Z,99924.94
2023-01-10T15:22:59.128Z,99915.75
2023-01-10T15:25:38.304Z,99913.41
2023-01-10T15:28:13.375Z,99900.09
2023-01-10T15:30:41.884Z,99908.22
2023-01-10T15:33:23.130Z,99910.88
2023-01-10T15:35:49.400Z,99907.13
2023-01-10T15:38:20.977Z,99899.22
2023-01-10T15:40:57.379Z,99892.28
2023-01-10T15:43:25.868Z,99891.63
2023-01-10T15:45:55.682Z,99887.66
2023-01-10T15:48:35.826Z,99890.56
2023-01-10T15:51:26.717Z,99883.25
2023-01-10T15:54:06.973Z,99888.53
2023-01-10T15:56:37.816Z,99886.53
2023-01-10T15:59:06.393Z,99885.72
2023-01-10T16:01:34.173Z,99881.94
2023-01-10T16:04:04.389Z,99877.44
2023-01-10T16:06:36.420Z,99883.84
2023-01-10T16:09:08.355Z,99879.28
2023-01-10T16:12:10.041Z,99874.72
2023-01-10T16:14:37.742Z,99872.84
2023-01-10T16:17:05.112Z,99865.97
2023-01-10T16:19:31.459Z,99865.44
2023-01-10T16:21:59.463Z,99864.50
2023-01-10T16:24:31.093Z,99855.16
2023-01-10T16:27:00.359Z,99854.81
2023-01-10T16:29:26.722Z,99849.56
2023-01-10T16:31:53.430Z,99854.22
2023-01-10T16:34:20.501Z,99855.47
2023-01-10T16:36:46.834Z,99841.78
2023-01-10T16:39:21.432Z,99843.63
2023-01-10T16:42:06.751Z,99838.84
2023-01-10T16:44:34.269Z,99835.28
2023-01-10T16:47:01.083Z,99836.50
2023-01-10T16:49:27.454Z,99820.28
2023-01-10T16:51:55.145Z,99819.88
2023-01-10T16:54:22.887Z,99822.91
2023-01-10T16:56:49.580Z,99810.59
2023-01-10T16:59:17.980Z,99804.22
2023-01-10T17:01:49.615Z,99806.25
2023-01-10T17:04:21.768Z,99786.00
2023-01-10T17:06:48.544Z,99777.47
2023-01-10T17:09:23.595Z,99773.78
2023-01-10T17:11:56.442Z,99778.50
2023-01-10T17:14:23.115Z,99778.09
2023-01-10T17:16:50.071Z,99769.88
2023-01-10T17:19:16.525Z,99771.28
2023-01-10T17:21:42.863Z,99772.56
2023-01-10T17:24:10.398Z,99774.91
2023-01-10T17:26:37.031Z,99775.88
2023-01-10T17:29:03.632Z,99781.50
2023-01-10T17:31:30.301Z,99772.31
2023-01-10T17:33:57.117Z,99773.25
2023-01-10T17:36:28.444Z,99774.91
2023-01-10T17:38:54.945Z,99754.75
2023-01-10T17:41:21.258Z,99762.75
2023-01-10T17:43:47.764Z,99754.19
2023-01-10T17:46:16.462Z,99748.09
2023-01-10T17:48:42.857Z,99764.78
2023-01-10T17:51:10.210Z,99762.53
2023-01-10T17:53:36.545Z,99768.53
2023-01-10T17:56:05.369Z,99779.69
2023-01-10T17:58:31.764Z,99768.00
2023-01-10T18:00:58.244Z,99782.44
2023-01-10T18:03:24.773Z,99774.53
2023-01-10T18:05:52.943Z,99774.91
2023-01-10T18:08:20.405Z,99775.78
2023-01-10T18:10:47.477Z,99767.13
2023-01-10T18:13:15.191Z,99770.63
2023-01-10T18:15:44.295Z,99767.53
2023-01-10T18:18:10.758Z,99776.06
2023-01-10T18:20:41.747Z,99756.16
2023-01-10T18:23:21.170Z,99768.16
2023-01-10T18:26:05.647Z,99764.41
2023-01-10T18:28:41.853Z,99767.50
2023-01-10T18:31:11.667Z,99767.59
2023-01-10T18:33:38.156Z,99775.66
2023-01-10T18:36:05.914Z,99776.97
2023-01-10T18:38:33.576Z,99767.59
2023-01-10T18:40:59.882Z,99769.84
2023-01-10T18:43:26.352Z,99772.75
2023-01-10T18:46:07.421Z,99777.81
2023-01-10T18:48:33.975Z,99768.91
2023-01-10T18:51:01.878Z,99764.88
2023-01-10T18:53:28.589Z,99769.25
2023-01-10T18:55:56.636Z,99765.34
2023-01-10T18:58:27.640Z,99772.47
2023-01-10T19:00:54.498Z,99760.22
2023-01-10T19:03:22.845Z,99769.75
2023-01-10T19:05:49.358Z,99759.28
2023-01-10T19:08:16.045Z,99758.44
2023-01-10T19:11:03.621Z,99761.16
2023-01-10T19:13:29.905Z,99753.06
2023-01-10T19:16:08.284Z,99747.47
2023-01-10T19:18:34.786Z,99745.00
2023-01-10T19:21:01.139Z,99742.38
2023-01-10T19:23:27.448Z,99737.31
2023-01-10T19:25:57.903Z,99727.19
2023-01-10T19:28:24.457Z,99722.88
2023-01-10T19:31:03.531Z,99722.50
2023-01-10T19:33:32.605Z,99719.53
2023-01-10T19:35:58.915Z,99722.91
2023-01-10T19:38:25.217Z,99720.66
2023-01-10T19:40:52.751Z,99719.72
2023-01-10T19:43:19.625Z,99709.56
2023-01-10T19:45:45.987Z,99710.50
2023-01-10T19:48:12.303Z,99711.38
2023-01-10T19:50:38.672Z,99702.97
2023-01-10T19:53:04.998Z,99709.78
2023-01-10T19:55:32.451Z,99706.94
2023-01-10T19:58:00.017Z,99705.28
2023-01-10T20:00:26.385Z,99701.28
2023-01-10T20:02:52.810Z,99687.19
2023-01-10T20:05:19.221Z,99691.06
2023-01-10T20:07:49.892Z,99680.06
2023-01-10T20:10:16.679Z,99680.19
2023-01-10T20:12:43.283Z,99666.63
2023-01-10T20:15:10.659Z,99662.03
2023-01-10T20:17:39.210Z,99664.44
2023-01-10T20:20:05.984Z,99655.75
2023-01-10T20:22:32.300Z,99663.28
2023-01-10T20:24:58.663Z,99663.38
2023-01-10T20:27:24.973Z,99643.56
2023-01-10T20:29:51.272Z,99654.88
2023-01-10T20:32:19.429Z,99657.28
2023-01-10T20:34:47.313Z,99651.94
2023-01-10T20:37:14.386Z,99648.06
2023-01-10T20:39:40.897Z,99649.50
2023-01-10T20:42:07.206Z,99647.81
2023-01-10T20:44:33.602Z,99638.13
2023-01-10T20:46:59.927Z,99636.66
2023-01-10T20:49:26.399Z,99639.94
2023-01-10T20:51:54.183Z,99633.38
2023-01-10T20:54:20.578Z,99631.88
2023-01-10T20:56:46.943Z,99628.78
2023-01-10T20:59:13.286Z,99637.19
2023-01-10T21:01:39.696Z,99619.84
2023-01-10T21:04:07.379Z,99627.44
2023-01-10T21:06:35.277Z,99631.28
2023-01-10T21:09:02.132Z,99623.50
2023-01-10T21:11:28.918Z,99619.00
2023-01-10T21:13:55.250Z,99613.75
2023-01-10T21:16:22.324Z,99608.03
2023-01-10T21:18:49.114Z,99615.91
2023-01-10T21:21:18.492Z,99612.25
2023-01-10T21:23:44.923Z,99612.88
2023-01-10T21:26:13.613Z,99617.34
2023-01-10T21:28:42.678Z,99619.28
2023-01-10T21:31:10.382Z,99612.75
2023-01-10T21:33:37.180Z,99618.16
2023-01-10T21:36:05.025Z,99614.78
2023-01-10T21:38:32.875Z,99610.94
2023-01-10T21:41:12.859Z,99611.03
2023-01-10T21:43:44.010Z,99609.81
2023-01-10T21:46:11.145Z,99594.03
2023-01-10T21:48:37.461Z,99592.00
2023-01-10T21:51:03.901Z,99589.47
2023-01-10T21:53:30.209Z,99577.47
2023-01-10T21:55:58.651Z,99577.47
2023-01-10T21:58:25.012Z,99576.09
2023-01-10T22:00:55.631Z,99573.06
2023-01-10T22:03:22.079Z,99567.22
2023-01-10T22:05:48.443Z,99573.97
2023-01-10T22:08:14.738Z,99558.81
2023-01-10T22:10:41.189Z,99570.22
2023-01-10T22:13:07.497Z,99566.84
2023-01-10T22:15:33.858Z,99575.84
2023-01-10T22:18:01.157Z,99560.31
2023-01-10T22:20:27.504Z,99560.66
2023-01-10T22:22:53.867Z,99569.34
2023-01-10T22:25:20.230Z,99559.13
2023-01-10T22:27:46.561Z,99565.78
2023-01-10T22:30:13.049Z,99553.66
2023-01-10T22:32:39.365Z,99564.38
2023-01-10T22:35:06.347Z,99571.59
2023-01-10T22:37:33.706Z,99545.97
2023-01-10T22:40:00.011Z,99542.72
2023-01-10T22:42:27.063Z,99545.69
2023-01-10T22:44:53.397Z,99544.84
2023-01-10T22:47:19.728Z,99553.56
2023-01-10T22:49:46.060Z,99534.41
2023-01-10T22:52:12.461Z,99533.75
2023-01-10T22:54:38.755Z,99539.03
2023-01-10T22:57:05.073Z,99527.13
2023-01-10T22:59:33.184Z,99517.69
2023-01-10T23:01:59.547Z,99515.59
2023-01-10T23:04:25.869Z,99513.94
2023-01-10T23:06:52.280Z,99508.88
2023-01-10T23:09:18.602Z,99498.56
2023-01-10T23:11:44.905Z,99509.81
2023-01-10T23:14:11.203Z,99509.63
2023-01-10T23:16:37.664Z,99506.88
2023-01-10T23:19:04.329Z,99491.22
2023-01-10T23:21:30.628Z,99491.22
2023-01-10T23:23:56.947Z,99490.28
2023-01-10T23:26:23.578Z,99483.88
2023-01-10T23:28:50.987Z,99485.25
2023-01-10T23:31:20.023Z,99469.72
2023-01-10T23:33:47.157Z,99479.91
2023-01-10T23:36:13.793Z,99480.84
2023-01-10T23:38:40.138Z,99472.56
2023-01-10T23:41:06.744Z,99474.34
2023-01-10T23:43:33.254Z,99476.34
2023-01-10T23:46:00.418Z,99476.56
2023-01-10T23:48:26.868Z,99470.66
2023-01-10T23:50:53.216Z,99459.22
2023-01-10T23:53:20.028Z,99455.31
2023-01-10T23:55:46.604Z,99453.28
2023-01-10T23:58:13.288Z,99441.84
